sensor_id;sensor_type;location;lat;lon;timestamp;temperature;humidity
45042;DHT22;30779;52.096;4.410;2022-07-29T00:02:18;17.20;99.90
45042;DHT22;30779;52.096;4.410;2022-07-29T00:05:18;17.10;99.90
45042;DHT22;30779;52.096;4.410;2022-07-29T00:08:19;17.10;99.90
45042;DHT22;30779;52.096;4.410;2022-07-29T00:11:20;17.00;99.90
45042;DHT22;30779;52.096;4.410;2022-07-29T00:14:21;17.00;99.90
45042;DHT22;30779;52.096;4.410;2022-07-29T00:17:22;17.00;99.90
45042;DHT22;30779;52.096;4.410;2022-07-29T00:20:23;17.00;99.90
45042;DHT22;30779;52.096;4.410;2022-07-29T00:23:24;16.90;99.90
45042;DHT22;30779;52.096;4.410;2022-07-29T00:26:24;17.00;99.90
45042;DHT22;30779;52.096;4.410;2022-07-29T00:29:25;16.90;99.90
45042;DHT22;30779;52.096;4.410;2022-07-29T00:32:26;16.90;99.90
45042;DHT22;30779;52.096;4.410;2022-07-29T00:35:26;16.90;99.90
45042;DHT22;30779;52.096;4.410;2022-07-29T00:38:45;16.90;99.90
45042;DHT22;30779;52.096;4.410;2022-07-29T00:41:46;16.90;99.90
45042;DHT22;30779;52.096;4.410;2022-07-29T00:44:46;16.90;99.90
45042;DHT22;30779;52.096;4.410;2022-07-29T00:47:47;16.80;99.90
45042;DHT22;30779;52.096;4.410;2022-07-29T00:50:49;16.80;99.90
45042;DHT22;30779;52.096;4.410;2022-07-29T00:53:49;16.80;99.90
45042;DHT22;30779;52.096;4.410;2022-07-29T00:56:51;16.70;99.90
45042;DHT22;30779;52.096;4.410;2022-07-29T00:59:52;16.70;99.90
45042;DHT22;30779;52.096;4.410;2022-07-29T01:02:52;16.70;99.90
45042;DHT22;30779;52.096;4.410;2022-07-29T01:05:54;16.70;99.90
45042;DHT22;30779;52.096;4.410;2022-07-29T01:08:55;16.70;99.90
45042;DHT22;30779;52.096;4.410;2022-07-29T01:11:57;16.70;99.90
45042;DHT22;30779;52.096;4.410;2022-07-29T01:15:00;16.60;99.90
45042;DHT22;30779;52.096;4.410;2022-07-29T01:18:07;16.60;99.90
45042;DHT22;30779;52.096;4.410;2022-07-29T01:25:17;16.60;99.90
45042;DHT22;30779;52.096;4.410;2022-07-29T01:32:04;16.60;99.90
45042;DHT22;30779;52.096;4.410;2022-07-29T01:35:23;16.60;99.90
45042;DHT22;30779;52.096;4.410;2022-07-29T01:38:25;16.60;99.90
45042;DHT22;30779;52.096;4.410;2022-07-29T01:41:30;16.50;99.90
45042;DHT22;30779;52.096;4.410;2022-07-29T01:44:35;16.50;99.90
45042;DHT22;30779;52.096;4.410;2022-07-29T01:47:58;16.50;99.90
45042;DHT22;30779;52.096;4.410;2022-07-29T01:51:12;16.50;99.90
45042;DHT22;30779;52.096;4.410;2022-07-29T01:54:22;16.50;99.90
45042;DHT22;30779;52.096;4.410;2022-07-29T01:57:28;16.50;99.90
45042;DHT22;30779;52.096;4.410;2022-07-29T02:00:31;16.50;99.90
45042;DHT22;30779;52.096;4.410;2022-07-29T02:03:33;16.50;99.90
45042;DHT22;30779;52.096;4.410;2022-07-29T02:06:37;16.50;99.90
45042;DHT22;30779;52.096;4.410;2022-07-29T02:09:40;16.50;99.90
45042;DHT22;30779;52.096;4.410;2022-07-29T02:12:42;16.40;99.90
45042;DHT22;30779;52.096;4.410;2022-07-29T02:15:45;16.40;99.90
45042;DHT22;30779;52.096;4.410;2022-07-29T02:18:49;16.40;99.90
45042;DHT22;30779;52.096;4.410;2022-07-29T02:21:52;16.40;99.90
45042;DHT22;30779;52.096;4.410;2022-07-29T02:24:54;16.40;99.90
45042;DHT22;30779;52.096;4.410;2022-07-29T02:27:56;16.30;99.90
45042;DHT22;30779;52.096;4.410;2022-07-29T02:31:00;16.30;99.90
45042;DHT22;30779;52.096;4.410;2022-07-29T02:34:05;16.30;99.90
45042;DHT22;30779;52.096;4.410;2022-07-29T02:37:09;16.30;99.90
45042;DHT22;30779;52.096;4.410;2022-07-29T02:40:15;16.30;99.90
45042;DHT22;30779;52.096;4.410;2022-07-29T02:43:16;16.30;99.90
45042;DHT22;30779;52.096;4.410;2022-07-29T02:46:21;16.30;99.90
45042;DHT22;30779;52.096;4.410;2022-07-29T02:52:34;16.30;99.90
45042;DHT22;30779;52.096;4.410;2022-07-29T02:55:43;16.30;99.90
45042;DHT22;30779;52.096;4.410;2022-07-29T02:58:52;16.30;99.90
45042;DHT22;30779;52.096;4.410;2022-07-29T03:01:55;16.20;99.90
45042;DHT22;30779;52.096;4.410;2022-07-29T03:04:58;16.30;99.90
45042;DHT22;30779;52.096;4.410;2022-07-29T03:08:03;16.20;99.90
45042;DHT22;30779;52.096;4.410;2022-07-29T03:11:04;16.20;99.90
45042;DHT22;30779;52.096;4.410;2022-07-29T03:14:05;16.20;99.90
45042;DHT22;30779;52.096;4.410;2022-07-29T03:17:07;16.10;99.90
45042;DHT22;30779;52.096;4.410;2022-07-29T03:20:10;16.20;99.90
45042;DHT22;30779;52.096;4.410;2022-07-29T03:23:12;16.10;99.90
45042;DHT22;30779;52.096;4.410;2022-07-29T03:26:18;16.20;99.90
45042;DHT22;30779;52.096;4.410;2022-07-29T03:29:19;16.10;99.90
45042;DHT22;30779;52.096;4.410;2022-07-29T03:32:20;16.20;99.90
45042;DHT22;30779;52.096;4.410;2022-07-29T03:35:20;16.20;99.90
45042;DHT22;30779;52.096;4.410;2022-07-29T03:38:24;16.20;99.90
45042;DHT22;30779;52.096;4.410;2022-07-29T03:41:28;16.20;99.90
45042;DHT22;30779;52.096;4.410;2022-07-29T03:44:30;16.20;99.90
45042;DHT22;30779;52.096;4.410;2022-07-29T03:47:33;16.20;99.90
45042;DHT22;30779;52.096;4.410;2022-07-29T03:50:35;16.30;99.90
45042;DHT22;30779;52.096;4.410;2022-07-29T03:53:36;16.30;99.90
45042;DHT22;30779;52.096;4.410;2022-07-29T03:56:40;16.20;99.90
45042;DHT22;30779;52.096;4.410;2022-07-29T03:59:43;16.20;99.90
45042;DHT22;30779;52.096;4.410;2022-07-29T04:02:44;16.20;99.90
45042;DHT22;30779;52.096;4.410;2022-07-29T04:06:03;16.10;99.90
45042;DHT22;30779;52.096;4.410;2022-07-29T04:09:05;16.00;99.90
45042;DHT22;30779;52.096;4.410;2022-07-29T04:12:06;16.00;99.90
45042;DHT22;30779;52.096;4.410;2022-07-29T04:15:08;16.00;99.90
45042;DHT22;30779;52.096;4.410;2022-07-29T04:18:08;16.00;99.90
45042;DHT22;30779;52.096;4.410;2022-07-29T04:21:09;16.00;99.90
45042;DHT22;30779;52.096;4.410;2022-07-29T04:24:10;16.00;99.90
45042;DHT22;30779;52.096;4.410;2022-07-29T04:27:10;16.10;99.90
45042;DHT22;30779;52.096;4.410;2022-07-29T04:30:11;16.00;99.90
45042;DHT22;30779;52.096;4.410;2022-07-29T04:33:12;16.10;99.90
45042;DHT22;30779;52.096;4.410;2022-07-29T04:36:13;16.00;99.90
45042;DHT22;30779;52.096;4.410;2022-07-29T04:39:14;16.00;99.90
45042;DHT22;30779;52.096;4.410;2022-07-29T04:42:15;16.10;99.90
45042;DHT22;30779;52.096;4.410;2022-07-29T04:45:15;16.10;99.90
45042;DHT22;30779;52.096;4.410;2022-07-29T04:48:16;16.00;99.90
45042;DHT22;30779;52.096;4.410;2022-07-29T04:51:17;16.00;99.90
45042;DHT22;30779;52.096;4.410;2022-07-29T04:54:17;16.00;99.90
45042;DHT22;30779;52.096;4.410;2022-07-29T04:57:18;16.10;99.90
45042;DHT22;30779;52.096;4.410;2022-07-29T05:00:19;16.10;99.90
45042;DHT22;30779;52.096;4.410;2022-07-29T05:03:19;16.10;99.90
45042;DHT22;30779;52.096;4.410;2022-07-29T05:06:20;16.20;99.90
45042;DHT22;30779;52.096;4.410;2022-07-29T05:09:21;16.20;99.90
45042;DHT22;30779;52.096;4.410;2022-07-29T05:12:21;16.20;99.90
45042;DHT22;30779;52.096;4.410;2022-07-29T05:15:22;16.20;99.90
45042;DHT22;30779;52.096;4.410;2022-07-29T05:18:23;16.20;99.90
45042;DHT22;30779;52.096;4.410;2022-07-29T05:21:24;16.30;99.90
45042;DHT22;30779;52.096;4.410;2022-07-29T05:24:25;16.40;99.90
45042;DHT22;30779;52.096;4.410;2022-07-29T05:27:25;16.50;99.90
45042;DHT22;30779;52.096;4.410;2022-07-29T05:30:26;16.60;99.90
45042;DHT22;30779;52.096;4.410;2022-07-29T05:33:26;16.60;99.90
45042;DHT22;30779;52.096;4.410;2022-07-29T05:36:27;16.80;99.90
45042;DHT22;30779;52.096;4.410;2022-07-29T05:39:28;17.00;99.90
45042;DHT22;30779;52.096;4.410;2022-07-29T05:42:28;17.20;99.90
45042;DHT22;30779;52.096;4.410;2022-07-29T05:45:29;17.30;99.90
45042;DHT22;30779;52.096;4.410;2022-07-29T05:48:30;17.40;99.90
45042;DHT22;30779;52.096;4.410;2022-07-29T05:51:30;17.30;99.90
45042;DHT22;30779;52.096;4.410;2022-07-29T05:54:31;17.30;99.90
45042;DHT22;30779;52.096;4.410;2022-07-29T05:57:32;17.30;99.90
45042;DHT22;30779;52.096;4.410;2022-07-29T06:00:33;17.30;99.90
45042;DHT22;30779;52.096;4.410;2022-07-29T06:03:34;17.40;99.90
45042;DHT22;30779;52.096;4.410;2022-07-29T06:06:35;17.40;99.90
45042;DHT22;30779;52.096;4.410;2022-07-29T06:09:36;17.40;99.90
45042;DHT22;30779;52.096;4.410;2022-07-29T06:12:37;17.50;99.90
45042;DHT22;30779;52.096;4.410;2022-07-29T06:18:38;17.60;99.90
45042;DHT22;30779;52.096;4.410;2022-07-29T06:21:43;17.80;99.90
45042;DHT22;30779;52.096;4.410;2022-07-29T06:24:44;17.80;99.90
45042;DHT22;30779;52.096;4.410;2022-07-29T06:27:45;17.80;99.90
45042;DHT22;30779;52.096;4.410;2022-07-29T06:30:45;17.80;99.90
45042;DHT22;30779;52.096;4.410;2022-07-29T06:33:46;18.00;99.90
45042;DHT22;30779;52.096;4.410;2022-07-29T06:36:47;18.00;99.90
45042;DHT22;30779;52.096;4.410;2022-07-29T06:39:47;17.90;99.90
45042;DHT22;30779;52.096;4.410;2022-07-29T06:42:48;18.00;99.90
45042;DHT22;30779;52.096;4.410;2022-07-29T06:45:49;17.90;99.90
45042;DHT22;30779;52.096;4.410;2022-07-29T06:48:50;17.90;99.90
45042;DHT22;30779;52.096;4.410;2022-07-29T06:51:51;18.00;99.90
45042;DHT22;30779;52.096;4.410;2022-07-29T06:54:52;18.00;99.90
45042;DHT22;30779;52.096;4.410;2022-07-29T06:57:53;18.10;99.90
45042;DHT22;30779;52.096;4.410;2022-07-29T07:00:54;18.20;99.90
45042;DHT22;30779;52.096;4.410;2022-07-29T07:03:56;18.40;99.90
45042;DHT22;30779;52.096;4.410;2022-07-29T07:06:56;18.50;99.90
45042;DHT22;30779;52.096;4.410;2022-07-29T07:09:58;18.40;99.90
45042;DHT22;30779;52.096;4.410;2022-07-29T07:12:59;18.50;99.90
45042;DHT22;30779;52.096;4.410;2022-07-29T07:16:01;18.40;99.90
45042;DHT22;30779;52.096;4.410;2022-07-29T07:19:02;18.30;99.90
45042;DHT22;30779;52.096;4.410;2022-07-29T07:22:03;18.30;99.90
45042;DHT22;30779;52.096;4.410;2022-07-29T07:25:04;18.20;99.90
45042;DHT22;30779;52.096;4.410;2022-07-29T07:28:04;18.20;99.90
45042;DHT22;30779;52.096;4.410;2022-07-29T07:31:05;18.10;99.90
45042;DHT22;30779;52.096;4.410;2022-07-29T07:34:06;18.10;99.90
45042;DHT22;30779;52.096;4.410;2022-07-29T07:37:06;18.00;99.90
45042;DHT22;30779;52.096;4.410;2022-07-29T07:40:09;18.00;99.90
45042;DHT22;30779;52.096;4.410;2022-07-29T07:43:10;18.10;99.90
45042;DHT22;30779;52.096;4.410;2022-07-29T07:46:11;18.20;99.90
45042;DHT22;30779;52.096;4.410;2022-07-29T07:49:11;18.20;99.90
45042;DHT22;30779;52.096;4.410;2022-07-29T07:52:13;18.40;99.90
45042;DHT22;30779;52.096;4.410;2022-07-29T07:55:14;18.60;99.90
45042;DHT22;30779;52.096;4.410;2022-07-29T07:58:14;18.80;99.90
45042;DHT22;30779;52.096;4.410;2022-07-29T08:01:15;18.90;99.90
45042;DHT22;30779;52.096;4.410;2022-07-29T08:04:19;19.20;99.90
45042;DHT22;30779;52.096;4.410;2022-07-29T08:07:19;19.30;99.90
45042;DHT22;30779;52.096;4.410;2022-07-29T08:10:20;19.30;99.90
45042;DHT22;30779;52.096;4.410;2022-07-29T08:13:39;19.20;99.90
45042;DHT22;30779;52.096;4.410;2022-07-29T08:16:40;19.30;99.90
45042;DHT22;30779;52.096;4.410;2022-07-29T08:19:42;19.20;99.90
45042;DHT22;30779;52.096;4.410;2022-07-29T08:22:42;19.30;99.90
45042;DHT22;30779;52.096;4.410;2022-07-29T08:25:43;19.20;99.90
45042;DHT22;30779;52.096;4.410;2022-07-29T08:28:45;19.20;99.90
45042;DHT22;30779;52.096;4.410;2022-07-29T08:31:46;19.20;99.90
45042;DHT22;30779;52.096;4.410;2022-07-29T08:34:46;19.20;99.90
45042;DHT22;30779;52.096;4.410;2022-07-29T08:37:47;19.20;99.90
45042;DHT22;30779;52.096;4.410;2022-07-29T08:43:49;19.30;99.90
45042;DHT22;30779;52.096;4.410;2022-07-29T08:46:51;19.50;99.90
45042;DHT22;30779;52.096;4.410;2022-07-29T08:49:51;19.80;99.90
45042;DHT22;30779;52.096;4.410;2022-07-29T08:52:52;20.00;99.90
45042;DHT22;30779;52.096;4.410;2022-07-29T08:55:54;20.00;99.90
45042;DHT22;30779;52.096;4.410;2022-07-29T08:58:57;20.10;99.90
45042;DHT22;30779;52.096;4.410;2022-07-29T09:01:58;20.20;99.90
45042;DHT22;30779;52.096;4.410;2022-07-29T09:05:00;20.40;99.90
45042;DHT22;30779;52.096;4.410;2022-07-29T09:08:01;20.50;99.90
45042;DHT22;30779;52.096;4.410;2022-07-29T09:11:02;20.60;99.90
45042;DHT22;30779;52.096;4.410;2022-07-29T09:14:03;20.60;99.90
45042;DHT22;30779;52.096;4.410;2022-07-29T09:17:04;20.50;99.90
45042;DHT22;30779;52.096;4.410;2022-07-29T09:20:14;20.60;99.90
45042;DHT22;30779;52.096;4.410;2022-07-29T09:23:14;20.80;99.90
45042;DHT22;30779;52.096;4.410;2022-07-29T09:26:15;21.10;99.90
45042;DHT22;30779;52.096;4.410;2022-07-29T09:29:23;21.20;99.90
45042;DHT22;30779;52.096;4.410;2022-07-29T09:32:24;21.10;99.90
45042;DHT22;30779;52.096;4.410;2022-07-29T09:35:27;21.10;99.90
45042;DHT22;30779;52.096;4.410;2022-07-29T09:38:28;21.00;99.90
45042;DHT22;30779;52.096;4.410;2022-07-29T09:41:29;21.20;99.90
45042;DHT22;30779;52.096;4.410;2022-07-29T09:44:48;21.40;99.90
45042;DHT22;30779;52.096;4.410;2022-07-29T09:47:49;21.50;99.90
45042;DHT22;30779;52.096;4.410;2022-07-29T09:50:50;21.50;99.90
45042;DHT22;30779;52.096;4.410;2022-07-29T09:53:51;21.50;99.90
45042;DHT22;30779;52.096;4.410;2022-07-29T09:56:53;21.60;99.90
45042;DHT22;30779;52.096;4.410;2022-07-29T10:00:12;21.70;99.90
45042;DHT22;30779;52.096;4.410;2022-07-29T10:03:13;21.80;99.90
45042;DHT22;30779;52.096;4.410;2022-07-29T10:06:14;21.90;99.90
45042;DHT22;30779;52.096;4.410;2022-07-29T10:09:15;22.00;99.90
45042;DHT22;30779;52.096;4.410;2022-07-29T10:12:16;22.20;99.90
45042;DHT22;30779;52.096;4.410;2022-07-29T10:15:18;22.40;99.90
45042;DHT22;30779;52.096;4.410;2022-07-29T10:18:19;22.50;99.90
45042;DHT22;30779;52.096;4.410;2022-07-29T10:21:20;22.40;99.90
45042;DHT22;30779;52.096;4.410;2022-07-29T10:24:21;22.50;99.90
45042;DHT22;30779;52.096;4.410;2022-07-29T10:27:22;23.00;99.90
45042;DHT22;30779;52.096;4.410;2022-07-29T10:30:24;23.30;99.90
45042;DHT22;30779;52.096;4.410;2022-07-29T10:36:57;24.10;99.90
45042;DHT22;30779;52.096;4.410;2022-07-29T10:44:01;25.00;99.30
45042;DHT22;30779;52.096;4.410;2022-07-29T10:47:02;25.70;98.20
45042;DHT22;30779;52.096;4.410;2022-07-29T10:50:04;25.70;96.50
45042;DHT22;30779;52.096;4.410;2022-07-29T10:53:05;26.30;95.70
45042;DHT22;30779;52.096;4.410;2022-07-29T10:56:23;26.30;95.60
45042;DHT22;30779;52.096;4.410;2022-07-29T10:59:24;26.30;94.10
45042;DHT22;30779;52.096;4.410;2022-07-29T11:06:02;26.60;96.20
45042;DHT22;30779;52.096;4.410;2022-07-29T11:09:17;26.40;97.00
45042;DHT22;30779;52.096;4.410;2022-07-29T11:15:56;27.20;97.40
45042;DHT22;30779;52.096;4.410;2022-07-29T11:22:35;27.30;94.70
45042;DHT22;30779;52.096;4.410;2022-07-29T11:25:36;26.80;95.50
45042;DHT22;30779;52.096;4.410;2022-07-29T11:28:42;26.60;96.30
45042;DHT22;30779;52.096;4.410;2022-07-29T11:31:50;26.80;96.80
45042;DHT22;30779;52.096;4.410;2022-07-29T11:35:17;27.00;95.90
45042;DHT22;30779;52.096;4.410;2022-07-29T11:38:27;26.80;95.00
45042;DHT22;30779;52.096;4.410;2022-07-29T11:41:28;26.40;95.30
45042;DHT22;30779;52.096;4.410;2022-07-29T11:45:02;26.30;95.90
45042;DHT22;30779;52.096;4.410;2022-07-29T11:48:05;26.50;96.30
45042;DHT22;30779;52.096;4.410;2022-07-29T11:51:10;26.40;96.90
45042;DHT22;30779;52.096;4.410;2022-07-29T11:54:13;26.80;96.40
45042;DHT22;30779;52.096;4.410;2022-07-29T11:57:18;26.70;96.70
45042;DHT22;30779;52.096;4.410;2022-07-29T12:00:39;27.00;96.00
45042;DHT22;30779;52.096;4.410;2022-07-29T12:03:40;26.80;96.10
45042;DHT22;30779;52.096;4.410;2022-07-29T12:06:40;26.80;95.80
45042;DHT22;30779;52.096;4.410;2022-07-29T12:09:52;26.90;96.80
45042;DHT22;30779;52.096;4.410;2022-07-29T12:12:53;27.20;95.60
45042;DHT22;30779;52.096;4.410;2022-07-29T12:15:55;27.40;95.10
45042;DHT22;30779;52.096;4.410;2022-07-29T12:18:58;27.40;95.00
45042;DHT22;30779;52.096;4.410;2022-07-29T12:21:59;27.70;95.30
45042;DHT22;30779;52.096;4.410;2022-07-29T12:25:07;27.50;95.20
45042;DHT22;30779;52.096;4.410;2022-07-29T12:28:12;27.50;95.30
45042;DHT22;30779;52.096;4.410;2022-07-29T12:31:14;27.20;95.00
45042;DHT22;30779;52.096;4.410;2022-07-29T12:34:15;26.90;94.10
45042;DHT22;30779;52.096;4.410;2022-07-29T12:37:16;27.00;95.40
45042;DHT22;30779;52.096;4.410;2022-07-29T12:40:17;26.50;95.10
45042;DHT22;30779;52.096;4.410;2022-07-29T12:43:22;26.50;95.80
45042;DHT22;30779;52.096;4.410;2022-07-29T12:46:23;26.90;95.40
45042;DHT22;30779;52.096;4.410;2022-07-29T12:49:24;27.20;95.30
45042;DHT22;30779;52.096;4.410;2022-07-29T12:52:32;27.20;94.70
45042;DHT22;30779;52.096;4.410;2022-07-29T12:55:41;27.20;94.50
45042;DHT22;30779;52.096;4.410;2022-07-29T12:58:42;26.90;94.10
45042;DHT22;30779;52.096;4.410;2022-07-29T13:01:43;26.80;95.50
45042;DHT22;30779;52.096;4.410;2022-07-29T13:04:58;27.10;94.90
45042;DHT22;30779;52.096;4.410;2022-07-29T13:08:10;27.30;95.60
45042;DHT22;30779;52.096;4.410;2022-07-29T13:14:31;27.40;94.20
45042;DHT22;30779;52.096;4.410;2022-07-29T13:17:40;27.30;93.60
45042;DHT22;30779;52.096;4.410;2022-07-29T13:20:41;27.10;93.80
45042;DHT22;30779;52.096;4.410;2022-07-29T13:23:42;27.10;94.50
45042;DHT22;30779;52.096;4.410;2022-07-29T13:26:42;27.00;95.00
45042;DHT22;30779;52.096;4.410;2022-07-29T13:29:43;26.60;94.60
45042;DHT22;30779;52.096;4.410;2022-07-29T13:32:44;26.20;95.10
45042;DHT22;30779;52.096;4.410;2022-07-29T13:35:44;26.40;95.60
45042;DHT22;30779;52.096;4.410;2022-07-29T13:38:45;26.60;95.40
45042;DHT22;30779;52.096;4.410;2022-07-29T13:41:46;26.40;94.80
45042;DHT22;30779;52.096;4.410;2022-07-29T13:44:47;26.30;94.80
45042;DHT22;30779;52.096;4.410;2022-07-29T13:47:48;26.10;95.80
45042;DHT22;30779;52.096;4.410;2022-07-29T13:50:49;26.20;96.50
45042;DHT22;30779;52.096;4.410;2022-07-29T13:53:50;26.40;95.70
45042;DHT22;30779;52.096;4.410;2022-07-29T13:56:51;26.50;95.10
45042;DHT22;30779;52.096;4.410;2022-07-29T13:59:51;26.10;95.60
45042;DHT22;30779;52.096;4.410;2022-07-29T14:02:52;26.40;95.70
45042;DHT22;30779;52.096;4.410;2022-07-29T14:05:52;26.50;95.40
45042;DHT22;30779;52.096;4.410;2022-07-29T14:08:53;26.30;94.90
45042;DHT22;30779;52.096;4.410;2022-07-29T14:11:54;26.10;96.30
45042;DHT22;30779;52.096;4.410;2022-07-29T14:14:55;26.10;95.40
45042;DHT22;30779;52.096;4.410;2022-07-29T14:17:55;26.10;94.70
45042;DHT22;30779;52.096;4.410;2022-07-29T14:20:57;26.20;95.00
45042;DHT22;30779;52.096;4.410;2022-07-29T14:23:57;26.00;95.90
45042;DHT22;30779;52.096;4.410;2022-07-29T14:26:58;26.20;95.90
45042;DHT22;30779;52.096;4.410;2022-07-29T14:29:59;25.90;96.10
45042;DHT22;30779;52.096;4.410;2022-07-29T14:32:59;25.70;96.10
45042;DHT22;30779;52.096;4.410;2022-07-29T14:36:00;25.70;95.90
45042;DHT22;30779;52.096;4.410;2022-07-29T14:39:01;25.80;96.20
45042;DHT22;30779;52.096;4.410;2022-07-29T14:42:01;25.80;95.70
45042;DHT22;30779;52.096;4.410;2022-07-29T14:45:03;26.00;95.50
45042;DHT22;30779;52.096;4.410;2022-07-29T14:48:04;26.00;95.40
45042;DHT22;30779;52.096;4.410;2022-07-29T14:51:05;26.10;95.60
45042;DHT22;30779;52.096;4.410;2022-07-29T14:54:05;25.90;95.00
45042;DHT22;30779;52.096;4.410;2022-07-29T14:57:06;25.60;95.00
45042;DHT22;30779;52.096;4.410;2022-07-29T15:00:07;25.40;95.50
45042;DHT22;30779;52.096;4.410;2022-07-29T15:03:08;25.30;97.50
45042;DHT22;30779;52.096;4.410;2022-07-29T15:06:12;25.40;97.50
45042;DHT22;30779;52.096;4.410;2022-07-29T15:09:12;25.60;94.50
45042;DHT22;30779;52.096;4.410;2022-07-29T15:12:13;25.40;94.60
45042;DHT22;30779;52.096;4.410;2022-07-29T15:15:14;25.40;93.90
45042;DHT22;30779;52.096;4.410;2022-07-29T15:18:15;25.30;94.90
45042;DHT22;30779;52.096;4.410;2022-07-29T15:21:15;25.30;95.70
45042;DHT22;30779;52.096;4.410;2022-07-29T15:24:16;25.40;95.90
45042;DHT22;30779;52.096;4.410;2022-07-29T15:27:17;25.20;95.80
45042;DHT22;30779;52.096;4.410;2022-07-29T15:30:18;24.90;96.40
45042;DHT22;30779;52.096;4.410;2022-07-29T15:33:18;24.70;97.00
45042;DHT22;30779;52.096;4.410;2022-07-29T15:36:19;24.70;97.80
45042;DHT22;30779;52.096;4.410;2022-07-29T15:39:20;24.70;97.70
45042;DHT22;30779;52.096;4.410;2022-07-29T15:42:21;24.70;98.30
45042;DHT22;30779;52.096;4.410;2022-07-29T15:45:22;24.60;97.80
45042;DHT22;30779;52.096;4.410;2022-07-29T15:48:23;24.60;97.80
45042;DHT22;30779;52.096;4.410;2022-07-29T15:51:24;24.40;99.10
45042;DHT22;30779;52.096;4.410;2022-07-29T15:54:24;24.50;99.80
45042;DHT22;30779;52.096;4.410;2022-07-29T15:57:25;24.20;97.60
45042;DHT22;30779;52.096;4.410;2022-07-29T16:00:26;24.20;99.40
45042;DHT22;30779;52.096;4.410;2022-07-29T16:03:27;24.30;99.60
45042;DHT22;30779;52.096;4.410;2022-07-29T16:06:27;24.00;99.90
45042;DHT22;30779;52.096;4.410;2022-07-29T16:09:28;23.90;99.90
45042;DHT22;30779;52.096;4.410;2022-07-29T16:12:29;23.80;99.90
45042;DHT22;30779;52.096;4.410;2022-07-29T16:15:29;23.50;99.90
45042;DHT22;30779;52.096;4.410;2022-07-29T16:18:30;23.50;99.90
45042;DHT22;30779;52.096;4.410;2022-07-29T16:21:31;23.40;99.90
45042;DHT22;30779;52.096;4.410;2022-07-29T16:24:31;23.40;99.90
45042;DHT22;30779;52.096;4.410;2022-07-29T16:27:32;23.40;99.90
45042;DHT22;30779;52.096;4.410;2022-07-29T16:30:34;23.40;99.90
45042;DHT22;30779;52.096;4.410;2022-07-29T16:33:35;23.30;99.90
45042;DHT22;30779;52.096;4.410;2022-07-29T16:36:35;23.20;99.90
45042;DHT22;30779;52.096;4.410;2022-07-29T16:39:36;23.30;99.90
45042;DHT22;30779;52.096;4.410;2022-07-29T16:42:37;23.30;99.90
45042;DHT22;30779;52.096;4.410;2022-07-29T16:45:38;23.30;99.90
45042;DHT22;30779;52.096;4.410;2022-07-29T16:48:38;23.20;99.90
45042;DHT22;30779;52.096;4.410;2022-07-29T16:51:39;23.00;99.90
45042;DHT22;30779;52.096;4.410;2022-07-29T16:54:39;22.80;99.90
45042;DHT22;30779;52.096;4.410;2022-07-29T16:57:40;22.80;99.90
45042;DHT22;30779;52.096;4.410;2022-07-29T17:00:43;22.60;99.90
45042;DHT22;30779;52.096;4.410;2022-07-29T17:03:43;22.60;99.90
45042;DHT22;30779;52.096;4.410;2022-07-29T17:07:02;22.40;99.90
45042;DHT22;30779;52.096;4.410;2022-07-29T17:10:04;22.30;99.90
45042;DHT22;30779;52.096;4.410;2022-07-29T17:13:07;22.20;99.90
45042;DHT22;30779;52.096;4.410;2022-07-29T17:16:07;22.10;99.90
45042;DHT22;30779;52.096;4.410;2022-07-29T17:19:08;21.90;99.90
45042;DHT22;30779;52.096;4.410;2022-07-29T17:22:09;21.80;99.90
45042;DHT22;30779;52.096;4.410;2022-07-29T17:25:09;21.80;99.90
45042;DHT22;30779;52.096;4.410;2022-07-29T17:28:10;21.80;99.90
45042;DHT22;30779;52.096;4.410;2022-07-29T17:31:11;21.80;99.90
45042;DHT22;30779;52.096;4.410;2022-07-29T17:34:12;21.70;99.90
45042;DHT22;30779;52.096;4.410;2022-07-29T17:37:13;21.50;99.90
45042;DHT22;30779;52.096;4.410;2022-07-29T17:40:13;21.40;99.90
45042;DHT22;30779;52.096;4.410;2022-07-29T17:43:14;21.20;99.90
45042;DHT22;30779;52.096;4.410;2022-07-29T17:46:16;21.00;99.90
45042;DHT22;30779;52.096;4.410;2022-07-29T17:49:17;20.80;99.90
45042;DHT22;30779;52.096;4.410;2022-07-29T17:52:17;20.70;99.90
45042;DHT22;30779;52.096;4.410;2022-07-29T17:55:18;20.60;99.90
45042;DHT22;30779;52.096;4.410;2022-07-29T17:58:19;20.50;99.90
45042;DHT22;30779;52.096;4.410;2022-07-29T18:01:19;20.40;99.90
45042;DHT22;30779;52.096;4.410;2022-07-29T18:04:20;20.40;99.90
45042;DHT22;30779;52.096;4.410;2022-07-29T18:07:22;20.30;99.90
45042;DHT22;30779;52.096;4.410;2022-07-29T18:10:23;20.30;99.90
45042;DHT22;30779;52.096;4.410;2022-07-29T18:13:24;20.20;99.90
45042;DHT22;30779;52.096;4.410;2022-07-29T18:16:26;20.30;99.90
45042;DHT22;30779;52.096;4.410;2022-07-29T18:19:26;20.20;99.90
45042;DHT22;30779;52.096;4.410;2022-07-29T18:22:28;20.00;99.90
45042;DHT22;30779;52.096;4.410;2022-07-29T18:25:29;20.00;99.90
45042;DHT22;30779;52.096;4.410;2022-07-29T18:28:30;19.90;99.90
45042;DHT22;30779;52.096;4.410;2022-07-29T18:31:32;19.90;99.90
45042;DHT22;30779;52.096;4.410;2022-07-29T18:34:32;19.70;99.90
45042;DHT22;30779;52.096;4.410;2022-07-29T18:37:33;19.70;99.90
45042;DHT22;30779;52.096;4.410;2022-07-29T18:40:35;19.80;99.90
45042;DHT22;30779;52.096;4.410;2022-07-29T18:43:37;19.70;99.90
45042;DHT22;30779;52.096;4.410;2022-07-29T18:46:38;19.70;99.90
45042;DHT22;30779;52.096;4.410;2022-07-29T18:49:39;19.60;99.90
45042;DHT22;30779;52.096;4.410;2022-07-29T18:52:40;19.60;99.90
45042;DHT22;30779;52.096;4.410;2022-07-29T18:55:41;19.60;99.90
45042;DHT22;30779;52.096;4.410;2022-07-29T18:58:41;19.50;99.90
45042;DHT22;30779;52.096;4.410;2022-07-29T19:01:42;19.50;99.90
45042;DHT22;30779;52.096;4.410;2022-07-29T19:04:43;19.40;99.90
45042;DHT22;30779;52.096;4.410;2022-07-29T19:07:44;19.40;99.90
45042;DHT22;30779;52.096;4.410;2022-07-29T19:10:44;19.30;99.90
45042;DHT22;30779;52.096;4.410;2022-07-29T19:13:45;19.30;99.90
45042;DHT22;30779;52.096;4.410;2022-07-29T19:16:46;19.30;99.90
45042;DHT22;30779;52.096;4.410;2022-07-29T19:19:47;19.30;99.90
45042;DHT22;30779;52.096;4.410;2022-07-29T19:22:49;19.20;99.90
45042;DHT22;30779;52.096;4.410;2022-07-29T19:25:50;19.10;99.90
45042;DHT22;30779;52.096;4.410;2022-07-29T19:28:50;19.10;99.90
45042;DHT22;30779;52.096;4.410;2022-07-29T19:31:51;19.00;99.90
45042;DHT22;30779;52.096;4.410;2022-07-29T19:34:52;19.00;99.90
45042;DHT22;30779;52.096;4.410;2022-07-29T19:38:12;18.90;99.90
45042;DHT22;30779;52.096;4.410;2022-07-29T19:41:12;19.00;99.90
45042;DHT22;30779;52.096;4.410;2022-07-29T19:44:15;18.90;99.90
45042;DHT22;30779;52.096;4.410;2022-07-29T19:47:15;18.80;99.90
45042;DHT22;30779;52.096;4.410;2022-07-29T19:50:16;18.80;99.90